createdAt,value
2023-05-19T00:25:18.058Z,100.00
2023-05-19T00:27:57.599Z,100.00
2023-05-19T00:30:24.553Z,100.00
2023-05-19T00:32:51.954Z,100.00
2023-05-19T00:35:19.038Z,100.00
2023-05-19T00:42:43.827Z,100.00
2023-05-19T00:48:41.925Z,100.00
2023-05-19T00:52:05.995Z,100.00
2023-05-19T00:54:34.748Z,100.00
2023-05-19T00:57:04.552Z,100.00
2023-05-19T00:59:31.529Z,100.00
2023-05-19T01:14:02.579Z,100.00
2023-05-19T01:20:48.214Z,100.00
2023-05-19T01:27:30.180Z,100.00
2023-05-19T01:30:59.487Z,100.00
2023-05-19T01:37:21.601Z,100.00
2023-05-19T01:40:15.206Z,100.00
2023-05-19T01:46:08.931Z,100.00
2023-05-19T01:48:41.881Z,100.00
2023-05-19T01:51:09.274Z,100.00
2023-05-19T01:53:38.631Z,100.00
2023-05-19T01:56:08.760Z,100.00
2023-05-19T01:58:47.505Z,100.00
2023-05-19T02:01:17.776Z,100.00
2023-05-19T02:04:20.449Z,100.00
2023-05-19T02:07:20.976Z,100.00
2023-05-19T02:10:04.013Z,100.00
2023-05-19T02:12:45.071Z,100.00
2023-05-19T02:15:52.138Z,100.00
2023-05-19T02:18:56.502Z,100.00
2023-05-19T02:21:38.840Z,100.00
2023-05-19T02:28:13.910Z,100.00
2023-05-19T02:33:58.158Z,100.00
2023-05-19T02:37:31.523Z,100.00
2023-05-19T02:40:42.121Z,100.00
2023-05-19T02:43:09.036Z,100.00
2023-05-19T02:45:36.583Z,100.00
2023-05-19T02:48:03.964Z,100.00
2023-05-19T02:50:33.838Z,100.00
2023-05-19T02:53:01.628Z,100.00
2023-05-19T02:55:30.155Z,100.00
2023-05-19T02:58:06.083Z,100.00
2023-05-19T03:00:35.341Z,100.00
2023-05-19T03:03:39.887Z,100.00
2023-05-19T03:10:26.091Z,100.00
2023-05-19T03:16:28.429Z,100.00
2023-05-19T03:17:44.358Z,100.00
2023-05-19T03:35:05.670Z,100.00
2023-05-19T03:37:42.317Z,100.00
2023-05-19T03:43:01.902Z,100.00
2023-05-19T03:45:55.090Z,100.00
2023-05-19T04:47:59.635Z,100.00
2023-05-19T04:50:26.649Z,100.00
2023-05-19T04:53:23.879Z,100.00
2023-05-19T04:55:52.469Z,100.00
2023-05-19T04:58:49.052Z,100.00
2023-05-19T05:01:26.681Z,100.00
2023-05-19T05:03:59.261Z,100.00
2023-05-19T05:15:55.010Z,100.00
2023-05-19T05:18:22.170Z,100.00
2023-05-19T05:20:49.399Z,100.00
2023-05-19T05:23:16.967Z,100.00
2023-05-19T05:25:44.760Z,100.00
2023-05-19T05:28:11.969Z,100.00
2023-05-19T05:30:39.019Z,100.00
2023-05-19T05:33:06.523Z,100.00
2023-05-19T05:35:33.980Z,99.44
2023-05-19T05:38:02.639Z,97.46
2023-05-19T05:40:29.730Z,93.33
2023-05-19T05:42:57.085Z,96.40
2023-05-19T05:45:24.075Z,98.94
2023-05-19T05:47:51.764Z,91.36
2023-05-19T05:50:19.388Z,95.50
2023-05-19T05:52:50.162Z,92.87
2023-05-19T05:55:20.377Z,91.40
2023-05-19T05:57:48.982Z,82.13
2023-05-19T06:00:16.307Z,85.17
2023-05-19T06:02:47.569Z,83.60
2023-05-19T06:05:15.037Z,82.32
2023-05-19T06:07:41.979Z,76.57
2023-05-19T06:10:10.309Z,73.61
2023-05-19T06:12:40.922Z,73.01
2023-05-19T06:15:08.399Z,85.85
2023-05-19T06:17:36.250Z,84.11
2023-05-19T06:20:05.889Z,80.51
2023-05-19T06:22:32.696Z,82.35
2023-05-19T06:24:59.606Z,81.56
2023-05-19T06:27:26.677Z,80.25
2023-05-19T06:29:53.641Z,78.36
2023-05-19T06:32:21.026Z,73.27
2023-05-19T06:34:54.335Z,73.40
2023-05-19T06:37:23.104Z,74.29
2023-05-19T06:39:54.086Z,71.84
2023-05-19T06:42:22.806Z,68.75
2023-05-19T06:44:53.397Z,69.03
2023-05-19T06:47:20.446Z,68.92
2023-05-19T06:49:51.890Z,66.85
2023-05-19T06:52:19.132Z,66.60
2023-05-19T06:55:05.053Z,65.16
2023-05-19T06:57:31.970Z,64.19
2023-05-19T06:59:58.852Z,62.52
2023-05-19T07:02:25.762Z,65.97
2023-05-19T07:04:54.226Z,69.36
2023-05-19T07:07:21.423Z,63.72
2023-05-19T07:09:48.190Z,65.70
2023-05-19T07:12:15.248Z,64.70
2023-05-19T07:14:42.034Z,65.82
2023-05-19T07:17:09.392Z,65.25
2023-05-19T07:19:36.309Z,63.05
2023-05-19T07:22:03.254Z,64.00
2023-05-19T07:24:31.155Z,61.45
2023-05-19T07:26:58.541Z,60.35
2023-05-19T07:29:25.963Z,61.36
2023-05-19T07:31:58.116Z,60.52
2023-05-19T07:34:25.620Z,59.73
2023-05-19T07:36:52.627Z,60.08
2023-05-19T07:39:19.699Z,59.77
2023-05-19T07:41:52.824Z,58.91
2023-05-19T07:44:20.127Z,58.28
2023-05-19T07:46:56.035Z,56.59
2023-05-19T07:49:23.169Z,58.36
2023-05-19T07:51:53.156Z,60.15
2023-05-19T07:54:21.321Z,62.16
2023-05-19T07:56:48.465Z,62.15
2023-05-19T08:01:43.023Z,57.11
2023-05-19T08:04:12.703Z,57.21
2023-05-19T08:06:40.507Z,56.87
2023-05-19T08:09:07.620Z,57.80
2023-05-19T08:11:37.861Z,59.06
2023-05-19T08:14:04.946Z,58.63
2023-05-19T08:16:32.257Z,59.60
2023-05-19T08:19:05.759Z,59.55
2023-05-19T08:21:34.788Z,58.86
2023-05-19T08:24:02.352Z,59.73
2023-05-19T08:26:29.439Z,58.20
2023-05-19T08:28:56.423Z,57.28
2023-05-19T08:31:23.628Z,58.02
2023-05-19T08:33:51.405Z,56.78
2023-05-19T08:36:18.800Z,56.03
2023-05-19T08:38:45.807Z,58.76
2023-05-19T08:41:12.596Z,58.26
2023-05-19T08:43:40.052Z,58.72
2023-05-19T08:46:08.373Z,58.94
2023-05-19T08:48:39.669Z,58.32
2023-05-19T08:51:28.016Z,61.94
2023-05-19T08:54:02.576Z,61.26
2023-05-19T08:56:31.687Z,58.79
2023-05-19T08:59:01.011Z,58.30
2023-05-19T09:01:32.773Z,57.56
2023-05-19T09:03:59.812Z,55.81
2023-05-19T09:06:27.355Z,52.25
2023-05-19T09:08:54.344Z,52.28
2023-05-19T09:11:22.800Z,52.87
2023-05-19T09:13:50.194Z,53.50
2023-05-19T09:16:17.977Z,55.51
2023-05-19T09:18:57.396Z,54.92
2023-05-19T09:21:34.680Z,51.61
2023-05-19T09:24:08.645Z,53.63
2023-05-19T09:26:40.029Z,53.30
2023-05-19T09:29:19.392Z,52.72
2023-05-19T09:31:56.334Z,51.50
2023-05-19T09:34:29.082Z,54.30
2023-05-19T09:37:09.651Z,55.71
2023-05-19T09:39:39.254Z,52.66
2023-05-19T09:45:22.924Z,44.41
2023-05-19T09:47:50.183Z,47.70
2023-05-19T09:50:24.437Z,48.57
2023-05-19T09:52:53.278Z,48.08
2023-05-19T09:55:23.356Z,50.11
2023-05-19T09:57:51.704Z,49.84
2023-05-19T10:00:19.812Z,46.65
2023-05-19T10:27:19.858Z,46.58
2023-05-19T10:29:53.934Z,46.71
2023-05-19T10:32:25.110Z,48.27
2023-05-19T10:35:28.952Z,49.39
2023-05-19T10:38:08.013Z,49.97
2023-05-19T10:40:41.533Z,48.44
2023-05-19T10:43:59.877Z,49.33
2023-05-19T10:49:26.944Z,49.55
2023-05-19T10:52:09.243Z,49.27
2023-05-19T10:54:43.981Z,48.89
2023-05-19T10:57:15.681Z,50.16
2023-05-19T10:59:45.299Z,52.15
2023-05-19T11:02:40.325Z,50.73
2023-05-19T11:05:14.966Z,49.30
2023-05-19T11:08:22.323Z,46.88
2023-05-19T11:10:52.838Z,47.42
2023-05-19T11:13:28.812Z,46.10
2023-05-19T11:15:57.004Z,46.96
2023-05-19T11:18:26.958Z,48.38
2023-05-19T11:21:04.555Z,46.50
2023-05-19T11:23:50.684Z,44.44
2023-05-19T11:26:44.213Z,45.81
2023-05-19T11:29:27.357Z,43.28
2023-05-19T11:31:55.727Z,44.20
2023-05-19T11:34:26.202Z,44.74
2023-05-19T11:37:38.818Z,42.38
2023-05-19T11:40:11.761Z,43.83
2023-05-19T11:42:45.537Z,44.60
2023-05-19T11:45:14.915Z,41.55
2023-05-19T11:48:00.879Z,42.67
2023-05-19T11:50:29.399Z,42.53
2023-05-19T11:52:57.102Z,43.31
2023-05-19T11:55:25.093Z,44.09
2023-05-19T12:00:31.269Z,45.56
2023-05-19T12:02:58.521Z,45.87
2023-05-19T12:05:27.247Z,45.95
2023-05-19T12:07:54.259Z,46.67
2023-05-19T12:10:26.422Z,46.11
2023-05-19T12:12:54.461Z,47.26
2023-05-19T12:15:25.469Z,46.89
2023-05-19T12:17:57.268Z,46.40
2023-05-19T12:20:32.131Z,46.22
2023-05-19T12:23:01.869Z,47.14
2023-05-19T12:25:36.192Z,46.03
2023-05-19T12:28:04.015Z,46.83
2023-05-19T12:30:32.876Z,47.22
2023-05-19T12:33:02.482Z,44.97
2023-05-19T12:36:37.053Z,45.09
2023-05-19T12:39:09.961Z,44.95
2023-05-19T12:41:45.957Z,43.24
2023-05-19T12:47:11.736Z,43.30
2023-05-19T12:50:12.120Z,44.58
2023-05-19T12:53:29.114Z,44.06
2023-05-19T12:56:00.519Z,45.74
2023-05-19T12:58:28.147Z,44.89
2023-05-19T13:01:03.601Z,44.03
2023-05-19T13:03:33.267Z,42.91
2023-05-19T13:06:20.370Z,41.38
2023-05-19T13:12:55.083Z,40.31
2023-05-19T13:15:31.848Z,40.31
2023-05-19T13:20:07.584Z,40.44
2023-05-19T13:21:26.822Z,41.29
2023-05-19T13:23:57.552Z,42.09
2023-05-19T13:26:32.545Z,42.81
2023-05-19T13:29:00.068Z,42.01
2023-05-19T13:31:29.532Z,41.52
2023-05-19T13:34:04.982Z,41.23
2023-05-19T13:36:58.204Z,39.86
2023-05-19T13:39:25.477Z,40.08
2023-05-19T13:41:54.873Z,39.53
2023-05-19T13:44:31.571Z,39.28
2023-05-19T13:47:06.241Z,41.03
2023-05-19T13:49:33.196Z,39.58
2023-05-19T13:52:01.311Z,39.85
2023-05-19T13:57:20.903Z,41.27
2023-05-19T14:00:15.840Z,40.32
2023-05-19T14:02:45.824Z,41.68
2023-05-19T14:07:53.313Z,40.62
2023-05-19T14:10:23.212Z,41.55
2023-05-19T14:15:32.668Z,42.96
2023-05-19T14:18:10.224Z,45.76
2023-05-19T14:20:44.313Z,47.60
2023-05-19T14:23:28.035Z,47.77
2023-05-19T14:25:54.965Z,48.57
2023-05-19T14:28:23.832Z,49.57
2023-05-19T14:30:55.704Z,49.22
2023-05-19T14:33:22.963Z,49.50
2023-05-19T14:35:50.071Z,48.83
2023-05-19T14:38:16.884Z,50.20
2023-05-19T14:40:54.187Z,50.16
2023-05-19T14:43:21.589Z,50.68
2023-05-19T15:19:06.563Z,50.39
2023-05-19T16:39:23.858Z,53.27
2023-05-19T16:41:54.380Z,53.06
2023-05-19T16:44:30.225Z,53.38
2023-05-19T16:46:57.239Z,53.50
2023-05-19T16:49:24.191Z,53.61
2023-05-19T16:51:53.056Z,53.11
2023-05-19T16:54:21.354Z,52.88
2023-05-19T16:56:48.170Z,52.96
2023-05-19T16:59:15.090Z,53.51
2023-05-19T17:01:42.659Z,54.08
2023-05-19T17:04:12.049Z,54.67
2023-05-19T17:06:39.117Z,54.15
2023-05-19T17:09:06.255Z,53.95
2023-05-19T17:11:33.987Z,53.13
2023-05-19T17:14:02.170Z,54.42
2023-05-19T17:16:29.261Z,53.21
2023-05-19T17:18:56.247Z,52.11
2023-05-19T17:21:23.163Z,52.21
2023-05-19T17:23:56.387Z,51.99
2023-05-19T17:26:23.256Z,57.95
2023-05-19T17:28:53.080Z,60.68
2023-05-19T17:31:20.076Z,62.14
2023-05-19T17:33:47.165Z,62.28
2023-05-19T17:36:14.400Z,64.20
2023-05-19T17:38:42.046Z,65.21
2023-05-19T17:41:14.283Z,67.02
2023-05-19T17:43:41.810Z,68.22
2023-05-19T17:46:09.222Z,69.06
2023-05-19T17:48:40.071Z,71.08
2023-05-19T17:51:08.842Z,72.38
2023-05-19T17:53:36.781Z,74.38
2023-05-19T17:56:07.818Z,75.45
2023-05-19T17:58:35.580Z,79.93
2023-05-19T18:01:08.881Z,83.89
2023-05-19T18:04:23.577Z,87.51
2023-05-19T18:06:38.733Z,91.25
2023-05-19T18:09:10.408Z,93.30
2023-05-19T18:11:37.565Z,95.64
2023-05-19T18:14:04.957Z,96.59
2023-05-19T18:16:42.210Z,98.76
2023-05-19T18:19:12.495Z,97.50
2023-05-19T18:21:44.134Z,100.00
2023-05-19T18:24:16.532Z,99.34
2023-05-19T18:26:43.685Z,99.42
2023-05-19T18:29:13.139Z,100.00
2023-05-19T18:31:43.076Z,100.00
2023-05-19T18:34:10.152Z,100.00
2023-05-19T18:36:36.987Z,96.77
2023-05-19T18:39:04.881Z,92.64
2023-05-19T18:41:32.317Z,93.35
2023-05-19T18:43:59.176Z,92.43
2023-05-19T18:46:26.473Z,93.53
2023-05-19T18:48:53.793Z,94.17
2023-05-19T18:51:22.296Z,94.04
2023-05-19T18:53:56.036Z,93.97
2023-05-19T18:56:26.557Z,93.24
2023-05-19T18:58:55.059Z,94.42
2023-05-19T19:01:22.062Z,93.81
2023-05-19T19:04:06.317Z,94.63
2023-05-19T19:06:37.055Z,94.89
2023-05-19T19:09:07.521Z,93.93
2023-05-19T19:11:41.761Z,93.02
2023-05-19T19:16:53.212Z,100.00
2023-05-19T19:19:24.242Z,99.03
2023-05-19T19:22:01.258Z,97.57
2023-05-19T19:24:35.191Z,97.59
2023-05-19T19:27:09.066Z,95.43
2023-05-19T19:29:39.019Z,94.87
2023-05-19T19:32:06.548Z,93.60
2023-05-19T19:34:43.544Z,90.21
2023-05-19T19:40:15.934Z,88.92
2023-05-19T19:42:48.918Z,89.85
2023-05-19T19:45:20.002Z,89.50
2023-05-19T19:47:47.240Z,90.10
2023-05-19T19:50:17.353Z,89.21
2023-05-19T19:52:50.501Z,87.65
2023-05-19T20:15:20.270Z,85.31
2023-05-19T20:17:49.682Z,86.31
2023-05-19T20:20:16.976Z,86.47
2023-05-19T20:22:46.238Z,86.56
2023-05-19T20:25:13.136Z,86.98
2023-05-19T20:27:40.701Z,89.03
2023-05-19T20:30:11.699Z,87.34
2023-05-19T20:32:39.313Z,85.88
2023-05-19T20:35:07.318Z,82.94
2023-05-19T20:37:34.869Z,80.57
2023-05-19T20:40:37.460Z,78.32
2023-05-19T20:43:10.034Z,78.79
2023-05-19T20:45:39.441Z,79.49
2023-05-19T20:48:06.526Z,79.40
2023-05-19T20:50:33.790Z,79.71
2023-05-19T20:53:01.242Z,80.73
2023-05-19T20:55:31.172Z,80.97
2023-05-19T20:57:58.378Z,82.25
2023-05-19T21:00:25.190Z,79.73
2023-05-19T21:02:52.149Z,79.33
2023-05-19T21:05:19.428Z,78.37
2023-05-19T21:07:46.634Z,77.34
2023-05-19T21:10:15.989Z,77.66
2023-05-19T21:12:48.417Z,78.18
2023-05-19T21:15:16.633Z,76.05
2023-05-19T21:17:52.511Z,75.13
2023-05-19T21:20:19.379Z,75.77
2023-05-19T21:22:46.134Z,77.41
2023-05-19T21:25:15.396Z,77.97
2023-05-19T21:27:42.466Z,80.51
2023-05-19T21:30:09.852Z,81.94
2023-05-19T21:32:39.230Z,82.45
2023-05-19T21:35:12.937Z,82.23
2023-05-19T21:37:40.118Z,82.47
2023-05-19T21:40:09.419Z,83.21
2023-05-19T21:42:36.202Z,85.54
2023-05-19T21:45:03.237Z,84.96
2023-05-19T21:47:30.098Z,84.54
2023-05-19T21:49:57.015Z,86.33
2023-05-19T21:52:24.000Z,85.14
2023-05-19T21:54:52.302Z,86.81
2023-05-19T21:57:46.042Z,83.48
2023-05-19T22:00:28.938Z,80.85
2023-05-19T22:02:56.288Z,79.42
2023-05-19T22:05:23.269Z,84.73
2023-05-19T22:07:50.381Z,89.11
2023-05-19T22:10:25.018Z,90.10
2023-05-19T22:12:57.782Z,92.30
2023-05-19T22:18:08.799Z,92.64
2023-05-19T22:20:35.876Z,93.68
2023-05-19T22:23:04.933Z,98.61
2023-05-19T22:25:32.214Z,100.00
2023-05-19T22:28:02.348Z,98.89
2023-05-19T22:30:38.611Z,97.24
2023-05-19T22:33:08.330Z,94.73
2023-05-19T22:35:35.207Z,96.79
2023-05-19T22:38:02.228Z,95.01
2023-05-19T22:40:29.321Z,95.50
2023-05-19T22:42:56.375Z,98.34
2023-05-19T22:45:23.294Z,100.00
2023-05-19T22:47:51.067Z,97.79
2023-05-19T22:50:18.015Z,96.62
2023-05-19T22:52:44.999Z,96.12
2023-05-19T22:55:11.761Z,95.79
2023-05-19T22:57:38.666Z,98.14
2023-05-19T23:00:06.307Z,99.57
2023-05-19T23:02:33.360Z,99.10
2023-05-19T23:05:00.370Z,98.54
2023-05-19T23:07:27.325Z,98.69
2023-05-19T23:09:54.413Z,99.01
2023-05-19T23:12:21.312Z,99.65
2023-05-19T23:14:48.231Z,98.74
2023-05-19T23:17:18.964Z,98.85
2023-05-19T23:19:46.020Z,98.99
2023-05-19T23:22:12.890Z,99.42
2023-05-19T23:24:39.743Z,100.00
2023-05-19T23:27:06.973Z,100.00
2023-05-19T23:29:34.413Z,100.00
2023-05-19T23:32:01.547Z,100.00
2023-05-19T23:34:28.494Z,100.00
2023-05-19T23:36:55.760Z,100.00
2023-05-19T23:39:25.302Z,100.00
2023-05-19T23:41:52.203Z,100.00
2023-05-19T23:44:19.402Z,100.00
2023-05-19T23:46:46.280Z,100.00
2023-05-19T23:49:13.371Z,100.00
2023-05-19T23:51:40.300Z,100.00
2023-05-19T23:54:07.389Z,100.00
2023-05-19T23:56:34.237Z,100.00
2023-05-19T23:59:01.460Z,100.00
